Time;durP1;ratioP1;P1;durP2;ratioP2;P2;SDS_P1;SDS_P2;PMS_P1;PMS_P2;Temp;Humidity;BMP_temperature;BMP_pressure;BME280_temperature;BME280_humidity;BME280_pressure;Samples;Min_cycle;Max_cycle;Signal;HPM_P1;HPM_P2
2024/03/08 00:09:27;;;;;;;28.50;12.50;;;;;;;1.53;73.74;100876.47;31103731;28;20046;-77
2024/03/08 00:24:30;;;;;;;26.33;12.03;;;;;;;1.48;74.74;100874.00;31103683;28;20081;-77
2024/03/08 00:39:32;;;;;;;27.70;12.40;;;;;;;1.42;76.78;100861.22;31073983;28;20464;-78
2024/03/08 00:54:38;;;;;;;28.90;14.00;;;;;;;1.77;75.26;100851.50;31074899;28;20058;-77
2024/03/08 01:09:40;;;;;;;28.40;13.10;;;;;;;1.23;79.81;100848.41;31093723;28;20049;-76
2024/03/08 01:24:42;;;;;;;28.97;12.90;;;;;;;0.95;84.82;100841.09;31084622;28;20443;-77
2024/03/08 01:39:44;;;;;;;21.27;11.17;;;;;;;0.58;89.29;100842.19;31074522;28;20077;-78
2024/03/08 01:54:46;;;;;;;28.03;12.77;;;;;;;0.90;88.11;100846.69;31101839;28;20050;-77
2024/03/08 02:09:48;;;;;;;26.83;13.23;;;;;;;0.90;87.83;100862.72;31081848;28;20057;-76
2024/03/08 02:24:50;;;;;;;30.87;11.33;;;;;;;0.66;88.72;100860.03;31086563;28;20054;-78
2024/03/08 02:39:52;;;;;;;25.10;11.57;;;;;;;0.56;92.29;100855.88;31092550;28;20444;-77
2024/03/08 02:54:54;;;;;;;33.60;14.77;;;;;;;0.12;96.05;100857.47;31118472;28;20085;-78
2024/03/08 03:09:56;;;;;;;26.47;11.70;;;;;;;-0.14;97.83;100854.25;31120233;28;20061;-77
2024/03/08 03:25:00;;;;;;;27.77;11.53;;;;;;;-0.46;100.00;100840.53;31116534;28;20058;-77
2024/03/08 03:40:02;;;;;;;23.50;12.63;;;;;;;-0.66;100.00;100851.97;31084676;28;20060;-79
2024/03/08 03:55:04;;;;;;;26.10;12.67;;;;;;;-0.90;100.00;100847.28;31117851;28;20050;-77
2024/03/08 04:10:08;;;;;;;32.73;14.70;;;;;;;-0.67;100.00;100842.41;31102250;28;20089;-77
2024/03/08 04:25:10;;;;;;;29.87;15.23;;;;;;;-0.42;100.00;100843.34;31097070;28;20115;-78
2024/03/08 04:40:12;;;;;;;22.43;11.63;;;;;;;-0.40;100.00;100843.78;31093900;28;20053;-77
2024/03/08 04:55:14;;;;;;;34.07;12.37;;;;;;;-0.30;100.00;100856.75;31116889;28;20046;-77
2024/03/08 05:10:17;;;;;;;31.60;13.93;;;;;;;-0.24;100.00;100863.47;31106353;28;20056;-79
2024/03/08 05:25:19;;;;;;;32.60;12.67;;;;;;;0.54;100.00;100865.34;31113671;28;20123;-79
2024/03/08 05:40:21;;;;;;;24.00;12.67;;;;;;;1.38;92.70;100874.50;31091106;28;20133;-78
2024/03/08 05:55:24;;;;;;;28.10;12.17;;;;;;;2.17;79.00;100874.75;31107268;28;20058;-77
2024/03/08 06:10:27;;;;;;;26.97;11.43;;;;;;;3.24;69.32;100875.47;31075565;28;20051;-77
2024/03/08 06:25:29;;;;;;;19.70;12.60;;;;;;;4.61;60.54;100865.09;31112773;28;20058;-79
2024/03/08 06:40:31;;;;;;;23.17;11.57;;;;;;;5.80;54.78;100859.88;31088628;28;20550;-78
2024/03/08 06:55:33;;;;;;;29.40;13.43;;;;;;;6.80;51.37;100844.69;31104184;28;20092;-78
2024/03/08 07:10:37;;;;;;;20.40;10.07;;;;;;;8.18;46.96;100847.28;31087887;28;20518;-78
2024/03/08 07:25:39;;;;;;;20.37;9.33;;;;;;;9.16;44.74;100848.47;31101683;28;20054;-78
2024/03/08 07:40:47;;;;;;;23.03;9.63;;;;;;;9.93;42.71;100838.47;31105935;28;20499;-78
2024/03/08 07:55:50;;;;;;;19.80;9.00;;;;;;;10.20;41.81;100841.47;31077242;28;20058;-80
2024/03/08 08:10:52;;;;;;;23.33;9.17;;;;;;;10.27;40.86;100821.66;31104085;28;20125;-79
2024/03/08 08:25:55;;;;;;;21.27;9.23;;;;;;;11.47;39.76;100816.25;31106699;28;20061;-79
2024/03/08 08:40:58;;;;;;;27.90;12.43;;;;;;;11.80;37.83;100798.41;31101258;28;20042;-79
2024/03/08 08:56:12;;;;;;;21.33;9.30;;;;;;;12.69;37.77;100786.13;31103073;28;20415;-77
2024/03/08 09:11:15;;;;;;;20.70;10.73;;;;;;;12.26;37.39;100773.22;31104093;28;20420;-80
2024/03/08 09:26:17;;;;;;;22.43;9.33;;;;;;;13.57;36.67;100765.34;31100799;28;20046;-81
2024/03/08 09:41:30;;;;;;;24.03;9.93;;;;;;;14.13;35.32;100756.28;31089875;28;20046;-83
2024/03/08 09:56:45;;;;;;;15.57;8.23;;;;;;;14.22;34.67;100751.75;31129223;28;20092;-85
2024/03/08 10:11:48;;;;;;;20.33;8.40;;;;;;;14.39;34.66;100736.16;31086157;28;20080;-86
2024/03/08 10:27:11;;;;;;;15.87;8.03;;;;;;;14.92;33.33;100732.03;31063940;28;20073;-86
2024/03/08 10:42:18;;;;;;;19.10;8.03;;;;;;;14.36;33.94;100706.97;31078171;28;20050;-89
2024/03/08 10:57:23;;;;;;;22.00;8.60;;;;;;;14.61;34.22;100690.72;31130562;28;20485;-83
2024/03/08 11:12:47;;;;;;;23.50;7.97;;;;;;;14.68;33.74;100685.03;31112642;28;20122;-83
2024/03/08 11:28:05;;;;;;;11.87;5.77;;;;;;;14.14;33.37;100670.47;31015366;28;20054;-83
2024/03/08 11:43:08;;;;;;;14.50;6.87;;;;;;;15.28;32.60;100673.59;31001126;28;20054;-81
2024/03/08 11:58:12;;;;;;;16.63;7.63;;;;;;;14.87;33.28;100658.00;30983856;28;20096;-83
2024/03/08 12:13:14;;;;;;;14.23;6.60;;;;;;;14.83;32.69;100646.41;31010462;28;20059;-82
2024/03/08 12:28:19;;;;;;;16.00;7.70;;;;;;;12.13;36.04;100649.78;31060517;28;20050;-92
2024/03/08 12:43:21;;;;;;;12.07;5.80;;;;;;;10.29;37.97;100645.66;31082336;28;20045;-84
2024/03/08 12:58:25;;;;;;;13.70;6.63;;;;;;;9.34;39.39;100622.75;31064199;28;20066;-81
2024/03/08 13:13:27;;;;;;;12.23;5.93;;;;;;;8.49;41.00;100627.41;31112892;28;20045;-80
2024/03/08 13:28:36;;;;;;;17.23;7.30;;;;;;;8.60;40.79;100615.75;31091259;28;20585;-81
2024/03/08 13:43:39;;;;;;;22.50;8.73;;;;;;;8.37;41.33;100608.88;31102585;28;20046;-87
2024/03/08 13:58:43;;;;;;;18.37;8.47;;;;;;;7.95;41.73;100590.00;31117300;28;20049;-87
2024/03/08 14:13:46;;;;;;;30.73;9.87;;;;;;;7.87;42.56;100595.41;31096704;28;20058;-84
2024/03/08 14:28:51;;;;;;;18.00;9.27;;;;;;;7.42;42.60;100582.66;31086609;28;20184;-84
2024/03/08 14:43:54;;;;;;;22.70;9.93;;;;;;;7.22;43.14;100582.25;31110206;28;20103;-80
2024/03/08 14:58:59;;;;;;;21.07;9.13;;;;;;;6.98;43.34;100591.84;31140532;28;20077;-79
2024/03/08 15:14:01;;;;;;;19.07;8.73;;;;;;;6.57;43.73;100588.63;31098938;28;20055;-84
2024/03/08 15:29:04;;;;;;;28.30;9.77;;;;;;;6.04;44.53;100582.94;31108473;28;20046;-81
2024/03/08 15:44:09;;;;;;;23.27;9.80;;;;;;;6.03;44.84;100573.31;31103029;28;20074;-81
2024/03/08 15:59:13;;;;;;;26.75;10.25;;;;;;;5.69;45.68;100586.13;31114703;28;20077;-84
2024/03/08 16:14:16;;;;;;;30.90;12.73;;;;;;;5.53;46.72;100581.00;31095228;28;20069;-83
2024/03/08 16:29:18;;;;;;;31.80;13.87;;;;;;;5.35;47.35;100588.16;31133946;28;20053;-79
2024/03/08 16:44:24;;;;;;;47.67;19.87;;;;;;;4.84;48.75;100588.78;31109910;28;20054;-81
2024/03/08 16:59:27;;;;;;;50.20;23.50;;;;;;;4.64;48.97;100590.09;31097683;28;20053;-86
2024/03/08 17:14:29;;;;;;;56.40;21.13;;;;;;;4.33;50.94;100592.00;31119555;28;20050;-88
2024/03/08 17:29:54;;;;;;;48.13;21.03;;;;;;;4.32;52.28;100605.78;31223400;23;20410;-88
2024/03/08 17:45:17;;;;;;;42.73;17.03;;;;;;;3.81;54.67;100613.47;31289510;23;20089;-88
2024/03/08 18:00:37;;;;;;;37.17;16.47;;;;;;;3.58;56.94;100610.81;31163280;28;20092;-85
2024/03/08 18:15:40;;;;;;;32.00;14.83;;;;;;;4.15;57.18;100601.72;31147676;28;20065;-85
2024/03/08 18:30:48;;;;;;;35.37;15.07;;;;;;;3.69;57.63;100601.81;31157207;28;20129;-85
2024/03/08 18:45:53;;;;;;;40.33;16.00;;;;;;;3.69;60.19;100585.69;31082288;28;20054;-83
2024/03/08 19:00:55;;;;;;;39.17;16.80;;;;;;;3.15;62.55;100583.22;31043617;28;20062;-86
2024/03/08 19:15:58;;;;;;;37.23;15.97;;;;;;;3.18;62.35;100584.44;31008941;28;20045;-85
2024/03/08 19:31:00;;;;;;;32.50;16.60;;;;;;;2.91;65.12;100588.91;31031646;28;20092;-85
2024/03/08 19:46:02;;;;;;;36.80;16.47;;;;;;;2.69;67.42;100582.34;31103026;28;20057;-86
2024/03/08 20:01:09;;;;;;;45.50;17.40;;;;;;;2.98;66.70;100568.38;31161885;28;20053;-86
2024/03/08 20:16:12;;;;;;;35.30;17.03;;;;;;;3.56;63.79;100560.16;31157091;28;20054;-77
2024/03/08 20:31:14;;;;;;;31.77;15.73;;;;;;;3.02;68.98;100547.75;31143216;28;20853;-78
2024/03/08 20:46:17;;;;;;;28.73;14.47;;;;;;;2.98;70.37;100557.66;31149862;28;20491;-79
2024/03/08 21:01:20;;;;;;;20.90;11.30;;;;;;;3.35;68.51;100543.72;31114723;28;20060;-80
2024/03/08 21:16:23;;;;;;;26.97;10.37;;;;;;;2.74;69.85;100544.56;31132743;28;20523;-77
2024/03/08 21:31:25;;;;;;;20.10;9.13;;;;;;;2.78;68.40;100533.91;31114561;28;20050;-78
2024/03/08 21:46:29;;;;;;;30.67;12.70;;;;;;;2.51;69.39;100522.28;31122634;28;20089;-77
2024/03/08 22:01:32;;;;;;;27.43;12.67;;;;;;;2.35;71.51;100528.50;31126932;28;20054;-78
2024/03/08 22:16:35;;;;;;;24.23;12.17;;;;;;;2.30;70.56;100526.09;31113715;28;20078;-77
2024/03/08 22:31:40;;;;;;;23.23;12.10;;;;;;;2.22;71.50;100527.06;31116433;28;20056;-77
2024/03/08 22:46:42;;;;;;;25.53;12.37;;;;;;;1.99;71.63;100528.84;31053762;28;20463;-79
2024/03/08 23:01:45;;;;;;;29.70;12.40;;;;;;;2.21;71.34;100511.34;30998170;28;20057;-78
2024/03/08 23:16:49;;;;;;;36.97;14.87;;;;;;;1.66;76.23;100507.84;31018667;28;20072;-78
2024/03/08 23:31:51;;;;;;;26.80;11.73;;;;;;;2.08;73.97;100491.94;31015423;28;20046;-78
2024/03/08 23:46:53;;;;;;;30.07;14.20;;;;;;;2.33;71.94;100487.88;31025094;28;20066;-77
